sensor_id;sensor_type;location;lat;lon;timestamp;pressure;altitude;pressure_sealevel;temperature;humidity
6094;BME280;19964;42.060;24.700;2023-07-16T00:02:25;97697.22;;;24.97;81.21
6094;BME280;19964;42.060;24.700;2023-07-16T00:04:52;97694.59;;;24.89;80.69
6094;BME280;19964;42.060;24.700;2023-07-16T00:07:20;97700.03;;;24.92;78.27
6094;BME280;19964;42.060;24.700;2023-07-16T00:09:46;97699.34;;;24.69;83.38
6094;BME280;19964;42.060;24.700;2023-07-16T00:12:13;97702.50;;;24.63;84.29
6094;BME280;19964;42.060;24.700;2023-07-16T00:14:39;97710.03;;;24.30;86.25
6094;BME280;19964;42.060;24.700;2023-07-16T00:17:06;97707.28;;;24.44;85.47
6094;BME280;19964;42.060;24.700;2023-07-16T00:19:33;97707.75;;;24.46;85.76
6094;BME280;19964;42.060;24.700;2023-07-16T00:22:02;97709.34;;;24.08;87.19
6094;BME280;19964;42.060;24.700;2023-07-16T00:24:30;97703.97;;;23.99;88.62
6094;BME280;19964;42.060;24.700;2023-07-16T00:26:57;97709.00;;;23.70;91.29
6094;BME280;19964;42.060;24.700;2023-07-16T00:29:24;97714.47;;;23.73;90.98
6094;BME280;19964;42.060;24.700;2023-07-16T00:31:50;97709.59;;;23.67;91.85
6094;BME280;19964;42.060;24.700;2023-07-16T00:34:17;97708.19;;;23.39;94.27
6094;BME280;19964;42.060;24.700;2023-07-16T00:36:43;97715.13;;;23.48;93.16
6094;BME280;19964;42.060;24.700;2023-07-16T00:39:13;97708.84;;;23.22;95.36
6094;BME280;19964;42.060;24.700;2023-07-16T00:41:41;97716.50;;;23.10;96.20
6094;BME280;19964;42.060;24.700;2023-07-16T00:44:08;97711.88;;;23.16;96.03
6094;BME280;19964;42.060;24.700;2023-07-16T00:46:34;97711.72;;;23.12;96.50
6094;BME280;19964;42.060;24.700;2023-07-16T00:49:01;97712.72;;;23.02;97.88
6094;BME280;19964;42.060;24.700;2023-07-16T00:51:28;97704.19;;;23.06;97.62
6094;BME280;19964;42.060;24.700;2023-07-16T00:53:55;97709.25;;;23.16;96.33
6094;BME280;19964;42.060;24.700;2023-07-16T00:56:22;97705.28;;;23.05;97.29
6094;BME280;19964;42.060;24.700;2023-07-16T00:58:50;97699.34;;;22.99;97.64
6094;BME280;19964;42.060;24.700;2023-07-16T01:01:17;97694.72;;;23.05;96.98
6094;BME280;19964;42.060;24.700;2023-07-16T01:03:43;97700.31;;;23.03;96.34
6094;BME280;19964;42.060;24.700;2023-07-16T01:06:11;97704.66;;;23.08;96.02
6094;BME280;19964;42.060;24.700;2023-07-16T01:08:41;97703.97;;;23.16;95.35
6094;BME280;19964;42.060;24.700;2023-07-16T01:11:08;97699.88;;;22.87;96.59
6094;BME280;19964;42.060;24.700;2023-07-16T01:13:35;97704.13;;;22.97;96.89
6094;BME280;19964;42.060;24.700;2023-07-16T01:16:04;97708.22;;;23.03;96.82
6094;BME280;19964;42.060;24.700;2023-07-16T01:18:30;97708.34;;;22.98;96.21
6094;BME280;19964;42.060;24.700;2023-07-16T01:20:57;97710.97;;;22.98;96.54
6094;BME280;19964;42.060;24.700;2023-07-16T01:23:30;97714.28;;;23.03;96.39
6094;BME280;19964;42.060;24.700;2023-07-16T01:26:08;97713.63;;;22.98;96.28
6094;BME280;19964;42.060;24.700;2023-07-16T01:31:28;97706.78;;;22.97;96.39
6094;BME280;19964;42.060;24.700;2023-07-16T01:33:55;97705.56;;;22.81;97.38
6094;BME280;19964;42.060;24.700;2023-07-16T01:36:22;97711.19;;;22.39;100.00
6094;BME280;19964;42.060;24.700;2023-07-16T01:38:50;97710.22;;;22.35;100.00
6094;BME280;19964;42.060;24.700;2023-07-16T01:41:16;97719.28;;;22.42;100.00
6094;BME280;19964;42.060;24.700;2023-07-16T01:43:43;97712.16;;;22.29;100.00
6094;BME280;19964;42.060;24.700;2023-07-16T01:46:10;97723.47;;;22.43;100.00
6094;BME280;19964;42.060;24.700;2023-07-16T01:48:38;97713.53;;;22.27;100.00
6094;BME280;19964;42.060;24.700;2023-07-16T01:51:05;97723.72;;;22.20;100.00
6094;BME280;19964;42.060;24.700;2023-07-16T01:53:31;97725.06;;;22.03;100.00
6094;BME280;19964;42.060;24.700;2023-07-16T01:55:58;97723.78;;;22.14;100.00
6094;BME280;19964;42.060;24.700;2023-07-16T01:58:27;97718.63;;;21.96;100.00
6094;BME280;19964;42.060;24.700;2023-07-16T02:00:53;97719.47;;;21.91;100.00
6094;BME280;19964;42.060;24.700;2023-07-16T02:03:20;97721.72;;;21.84;100.00
6094;BME280;19964;42.060;24.700;2023-07-16T02:05:48;97708.50;;;21.71;100.00
6094;BME280;19964;42.060;24.700;2023-07-16T02:08:16;97712.09;;;21.75;100.00
6094;BME280;19964;42.060;24.700;2023-07-16T02:10:42;97715.38;;;21.85;100.00
6094;BME280;19964;42.060;24.700;2023-07-16T02:13:09;97720.16;;;21.83;100.00
6094;BME280;19964;42.060;24.700;2023-07-16T02:15:36;97719.13;;;21.79;100.00
6094;BME280;19964;42.060;24.700;2023-07-16T02:18:03;97718.78;;;21.86;100.00
6094;BME280;19964;42.060;24.700;2023-07-16T02:20:30;97713.31;;;21.82;100.00
6094;BME280;19964;42.060;24.700;2023-07-16T02:22:58;97718.25;;;21.70;100.00
6094;BME280;19964;42.060;24.700;2023-07-16T02:25:24;97720.41;;;21.68;100.00
6094;BME280;19964;42.060;24.700;2023-07-16T02:27:51;97721.63;;;21.57;100.00
6094;BME280;19964;42.060;24.700;2023-07-16T02:30:18;97725.06;;;21.71;100.00
6094;BME280;19964;42.060;24.700;2023-07-16T02:32:45;97719.94;;;21.80;100.00
6094;BME280;19964;42.060;24.700;2023-07-16T02:35:11;97718.94;;;21.76;100.00
6094;BME280;19964;42.060;24.700;2023-07-16T02:37:38;97725.50;;;21.78;100.00
6094;BME280;19964;42.060;24.700;2023-07-16T02:40:07;97724.94;;;21.81;100.00
6094;BME280;19964;42.060;24.700;2023-07-16T02:42:34;97734.19;;;21.79;100.00
6094;BME280;19964;42.060;24.700;2023-07-16T02:45:01;97727.16;;;21.74;100.00
6094;BME280;19964;42.060;24.700;2023-07-16T02:47:27;97733.38;;;21.65;100.00
6094;BME280;19964;42.060;24.700;2023-07-16T02:49:54;97729.38;;;21.67;100.00
6094;BME280;19964;42.060;24.700;2023-07-16T02:52:20;97731.50;;;21.84;100.00
6094;BME280;19964;42.060;24.700;2023-07-16T02:54:47;97726.25;;;21.79;100.00
6094;BME280;19964;42.060;24.700;2023-07-16T02:57:15;97736.06;;;21.78;100.00
6094;BME280;19964;42.060;24.700;2023-07-16T02:59:42;97743.19;;;21.78;100.00
6094;BME280;19964;42.060;24.700;2023-07-16T03:02:08;97737.28;;;21.67;100.00
6094;BME280;19964;42.060;24.700;2023-07-16T03:04:35;97735.31;;;21.59;100.00
6094;BME280;19964;42.060;24.700;2023-07-16T03:07:01;97730.25;;;21.63;100.00
6094;BME280;19964;42.060;24.700;2023-07-16T03:09:28;97728.19;;;21.60;100.00
6094;BME280;19964;42.060;24.700;2023-07-16T03:11:55;97729.78;;;21.74;100.00
6094;BME280;19964;42.060;24.700;2023-07-16T03:14:23;97731.13;;;21.58;100.00
6094;BME280;19964;42.060;24.700;2023-07-16T03:16:49;97726.34;;;21.60;100.00
6094;BME280;19964;42.060;24.700;2023-07-16T03:19:16;97729.53;;;21.57;100.00
6094;BME280;19964;42.060;24.700;2023-07-16T03:21:42;97740.31;;;21.61;100.00
6094;BME280;19964;42.060;24.700;2023-07-16T03:24:11;97734.19;;;21.79;100.00
6094;BME280;19964;42.060;24.700;2023-07-16T03:26:37;97734.91;;;21.84;100.00
6094;BME280;19964;42.060;24.700;2023-07-16T03:29:04;97730.13;;;21.86;100.00
6094;BME280;19964;42.060;24.700;2023-07-16T03:31:32;97735.97;;;21.83;100.00
6094;BME280;19964;42.060;24.700;2023-07-16T03:33:58;97737.09;;;21.96;100.00
6094;BME280;19964;42.060;24.700;2023-07-16T03:36:25;97736.88;;;22.06;100.00
6094;BME280;19964;42.060;24.700;2023-07-16T03:38:52;97743.06;;;22.15;100.00
6094;BME280;19964;42.060;24.700;2023-07-16T03:41:18;97746.19;;;22.17;100.00
6094;BME280;19964;42.060;24.700;2023-07-16T03:43:45;97745.50;;;22.25;100.00
6094;BME280;19964;42.060;24.700;2023-07-16T03:46:11;97743.94;;;22.38;100.00
6094;BME280;19964;42.060;24.700;2023-07-16T03:48:39;97747.47;;;22.47;100.00
6094;BME280;19964;42.060;24.700;2023-07-16T03:51:06;97750.59;;;22.49;100.00
6094;BME280;19964;42.060;24.700;2023-07-16T03:53:33;97749.69;;;22.53;100.00
6094;BME280;19964;42.060;24.700;2023-07-16T03:55:59;97748.84;;;22.58;100.00
6094;BME280;19964;42.060;24.700;2023-07-16T03:58:26;97754.97;;;22.53;100.00
6094;BME280;19964;42.060;24.700;2023-07-16T04:00:54;97753.94;;;22.68;100.00
6094;BME280;19964;42.060;24.700;2023-07-16T04:03:20;97753.00;;;22.86;100.00
6094;BME280;19964;42.060;24.700;2023-07-16T04:05:48;97752.09;;;22.90;100.00
6094;BME280;19964;42.060;24.700;2023-07-16T04:08:15;97754.53;;;23.00;100.00
6094;BME280;19964;42.060;24.700;2023-07-16T04:10:42;97751.78;;;23.28;99.99
6094;BME280;19964;42.060;24.700;2023-07-16T04:13:08;97755.06;;;23.47;98.71
6094;BME280;19964;42.060;24.700;2023-07-16T04:15:35;97764.44;;;23.75;97.00
6094;BME280;19964;42.060;24.700;2023-07-16T04:18:01;97762.69;;;24.01;94.98
6094;BME280;19964;42.060;24.700;2023-07-16T04:20:29;97765.22;;;24.28;93.05
6094;BME280;19964;42.060;24.700;2023-07-16T04:22:57;97766.06;;;24.46;91.72
6094;BME280;19964;42.060;24.700;2023-07-16T04:25:23;97761.19;;;24.48;88.89
6094;BME280;19964;42.060;24.700;2023-07-16T04:27:50;97768.66;;;24.37;88.86
6094;BME280;19964;42.060;24.700;2023-07-16T04:30:17;97763.19;;;24.73;86.85
6094;BME280;19964;42.060;24.700;2023-07-16T04:32:43;97774.59;;;24.91;86.96
6094;BME280;19964;42.060;24.700;2023-07-16T04:35:10;97771.59;;;24.27;86.18
6094;BME280;19964;42.060;24.700;2023-07-16T04:37:36;97778.84;;;24.13;86.85
6094;BME280;19964;42.060;24.700;2023-07-16T04:40:05;97771.69;;;24.14;88.46
6094;BME280;19964;42.060;24.700;2023-07-16T04:42:32;97779.94;;;24.12;87.13
6094;BME280;19964;42.060;24.700;2023-07-16T04:44:58;97782.91;;;24.11;87.48
6094;BME280;19964;42.060;24.700;2023-07-16T04:47:25;97778.72;;;24.18;87.99
6094;BME280;19964;42.060;24.700;2023-07-16T04:49:52;97792.50;;;24.37;87.35
6094;BME280;19964;42.060;24.700;2023-07-16T04:52:18;97788.66;;;24.52;89.28
6094;BME280;19964;42.060;24.700;2023-07-16T04:54:45;97797.25;;;24.66;86.33
6094;BME280;19964;42.060;24.700;2023-07-16T04:57:13;97795.78;;;24.82;87.67
6094;BME280;19964;42.060;24.700;2023-07-16T04:59:39;97802.50;;;24.97;86.03
6094;BME280;19964;42.060;24.700;2023-07-16T05:02:06;97797.06;;;25.19;84.38
6094;BME280;19964;42.060;24.700;2023-07-16T05:04:33;97798.16;;;25.26;82.33
6094;BME280;19964;42.060;24.700;2023-07-16T05:07:00;97803.38;;;25.57;81.98
6094;BME280;19964;42.060;24.700;2023-07-16T05:09:27;97795.53;;;25.52;79.50
6094;BME280;19964;42.060;24.700;2023-07-16T05:11:53;97799.88;;;25.05;80.69
6094;BME280;19964;42.060;24.700;2023-07-16T05:14:22;97804.25;;;25.10;81.75
6094;BME280;19964;42.060;24.700;2023-07-16T05:16:48;97798.78;;;24.98;82.27
6094;BME280;19964;42.060;24.700;2023-07-16T05:19:15;97804.91;;;25.49;82.49
6094;BME280;19964;42.060;24.700;2023-07-16T05:21:41;97807.56;;;25.24;79.96
6094;BME280;19964;42.060;24.700;2023-07-16T05:24:08;97812.06;;;25.23;81.94
6094;BME280;19964;42.060;24.700;2023-07-16T05:26:34;97802.22;;;25.84;79.77
6094;BME280;19964;42.060;24.700;2023-07-16T05:29:01;97814.72;;;26.47;76.66
6094;BME280;19964;42.060;24.700;2023-07-16T05:31:29;97819.75;;;26.69;73.73
6094;BME280;19964;42.060;24.700;2023-07-16T05:33:56;97818.94;;;26.85;74.91
6094;BME280;19964;42.060;24.700;2023-07-16T05:36:23;97807.47;;;26.56;74.74
6094;BME280;19964;42.060;24.700;2023-07-16T05:38:49;97818.34;;;27.00;75.65
6094;BME280;19964;42.060;24.700;2023-07-16T05:41:16;97816.69;;;26.58;73.92
6094;BME280;19964;42.060;24.700;2023-07-16T05:43:43;97823.09;;;26.19;75.94
6094;BME280;19964;42.060;24.700;2023-07-16T05:46:09;97829.50;;;26.94;75.36
6094;BME280;19964;42.060;24.700;2023-07-16T05:48:37;97826.81;;;26.65;74.15
6094;BME280;19964;42.060;24.700;2023-07-16T05:51:04;97825.81;;;26.49;74.86
6094;BME280;19964;42.060;24.700;2023-07-16T05:53:30;97821.50;;;26.73;76.74
6094;BME280;19964;42.060;24.700;2023-07-16T05:55:57;97829.06;;;27.42;73.70
6094;BME280;19964;42.060;24.700;2023-07-16T05:58:24;97828.25;;;26.62;74.24
6094;BME280;19964;42.060;24.700;2023-07-16T06:00:50;97781.94;;;26.25;73.29
6094;BME280;19964;42.060;24.700;2023-07-16T06:03:17;97825.88;;;26.61;74.07
6094;BME280;19964;42.060;24.700;2023-07-16T06:05:45;97832.81;;;27.41;70.93
6094;BME280;19964;42.060;24.700;2023-07-16T06:08:12;97827.97;;;27.13;70.31
6094;BME280;19964;42.060;24.700;2023-07-16T06:10:38;97824.03;;;26.90;71.45
6094;BME280;19964;42.060;24.700;2023-07-16T06:13:05;97822.38;;;27.06;70.69
6094;BME280;19964;42.060;24.700;2023-07-16T06:15:31;97826.00;;;27.52;71.78
6094;BME280;19964;42.060;24.700;2023-07-16T06:17:58;97827.75;;;27.48;70.95
6094;BME280;19964;42.060;24.700;2023-07-16T06:20:25;97822.81;;;27.91;71.57
6094;BME280;19964;42.060;24.700;2023-07-16T06:22:53;97819.66;;;27.77;70.19
6094;BME280;19964;42.060;24.700;2023-07-16T06:25:19;97825.72;;;27.65;71.20
6094;BME280;19964;42.060;24.700;2023-07-16T06:27:47;97822.38;;;27.89;70.79
6094;BME280;19964;42.060;24.700;2023-07-16T06:30:13;97820.56;;;27.81;69.50
6094;BME280;19964;42.060;24.700;2023-07-16T06:32:40;97827.78;;;28.13;67.94
6094;BME280;19964;42.060;24.700;2023-07-16T06:35:07;97827.91;;;28.29;67.70
6094;BME280;19964;42.060;24.700;2023-07-16T06:37:34;97821.53;;;28.66;65.51
6094;BME280;19964;42.060;24.700;2023-07-16T06:40:02;97812.72;;;29.14;65.04
6094;BME280;19964;42.060;24.700;2023-07-16T06:42:29;97815.44;;;29.41;60.85
6094;BME280;19964;42.060;24.700;2023-07-16T06:44:56;97801.50;;;29.08;62.24
6094;BME280;19964;42.060;24.700;2023-07-16T06:47:23;97810.88;;;27.97;65.18
6094;BME280;19964;42.060;24.700;2023-07-16T06:49:50;97804.81;;;28.45;65.12
6094;BME280;19964;42.060;24.700;2023-07-16T06:52:20;97805.69;;;29.09;62.72
6094;BME280;19964;42.060;24.700;2023-07-16T06:54:48;97792.50;;;28.88;63.29
6094;BME280;19964;42.060;24.700;2023-07-16T06:57:16;97759.78;;;29.16;62.77
6094;BME280;19964;42.060;24.700;2023-07-16T06:59:43;97799.84;;;28.91;63.54
6094;BME280;19964;42.060;24.700;2023-07-16T07:02:13;97798.72;;;29.44;64.60
6094;BME280;19964;42.060;24.700;2023-07-16T07:04:40;97802.16;;;30.00;61.01
6094;BME280;19964;42.060;24.700;2023-07-16T07:07:06;97798.59;;;29.96;58.99
6094;BME280;19964;42.060;24.700;2023-07-16T07:09:33;97752.50;;;28.64;61.57
6094;BME280;19964;42.060;24.700;2023-07-16T07:12:01;97799.38;;;29.14;61.88
6094;BME280;19964;42.060;24.700;2023-07-16T07:14:29;97810.03;;;29.26;60.06
6094;BME280;19964;42.060;24.700;2023-07-16T07:16:57;97815.97;;;29.47;60.50
6094;BME280;19964;42.060;24.700;2023-07-16T07:19:24;97813.41;;;28.62;61.85
6094;BME280;19964;42.060;24.700;2023-07-16T07:21:51;97774.53;;;28.61;62.87
6094;BME280;19964;42.060;24.700;2023-07-16T07:24:17;97817.63;;;28.99;61.82
6094;BME280;19964;42.060;24.700;2023-07-16T07:26:44;97802.38;;;29.00;61.92
6094;BME280;19964;42.060;24.700;2023-07-16T07:29:11;97817.56;;;29.63;62.59
6094;BME280;19964;42.060;24.700;2023-07-16T07:31:40;97814.09;;;29.63;60.78
6094;BME280;19964;42.060;24.700;2023-07-16T07:34:07;97807.03;;;29.82;58.93
6094;BME280;19964;42.060;24.700;2023-07-16T07:36:34;97809.13;;;29.89;58.04
6094;BME280;19964;42.060;24.700;2023-07-16T07:39:01;97807.69;;;30.07;58.87
6094;BME280;19964;42.060;24.700;2023-07-16T07:41:27;97805.00;;;29.64;58.58
6094;BME280;19964;42.060;24.700;2023-07-16T07:43:54;97806.81;;;30.03;58.38
6094;BME280;19964;42.060;24.700;2023-07-16T07:46:21;97814.09;;;30.65;56.92
6094;BME280;19964;42.060;24.700;2023-07-16T07:48:49;97811.78;;;31.14;53.92
6094;BME280;19964;42.060;24.700;2023-07-16T07:51:16;97814.34;;;31.45;54.58
6094;BME280;19964;42.060;24.700;2023-07-16T07:53:43;97803.47;;;31.19;56.81
6094;BME280;19964;42.060;24.700;2023-07-16T07:56:10;97809.28;;;31.59;55.62
6094;BME280;19964;42.060;24.700;2023-07-16T07:58:37;97755.59;;;31.75;54.36
6094;BME280;19964;42.060;24.700;2023-07-16T08:01:05;97807.72;;;32.19;52.76
6094;BME280;19964;42.060;24.700;2023-07-16T08:03:32;97807.38;;;31.40;53.08
6094;BME280;19964;42.060;24.700;2023-07-16T08:06:01;97785.59;;;31.61;56.36
6094;BME280;19964;42.060;24.700;2023-07-16T08:08:28;97802.63;;;31.91;52.94
6094;BME280;19964;42.060;24.700;2023-07-16T08:10:54;97808.41;;;31.93;54.41
6094;BME280;19964;42.060;24.700;2023-07-16T08:13:21;97812.28;;;31.96;52.81
6094;BME280;19964;42.060;24.700;2023-07-16T08:15:48;97810.19;;;31.67;54.24
6094;BME280;19964;42.060;24.700;2023-07-16T08:18:15;97810.75;;;31.37;53.66
6094;BME280;19964;42.060;24.700;2023-07-16T08:20:42;97786.94;;;32.12;52.88
6094;BME280;19964;42.060;24.700;2023-07-16T08:23:10;97809.63;;;32.41;51.97
6094;BME280;19964;42.060;24.700;2023-07-16T08:25:37;97811.97;;;31.40;53.16
6094;BME280;19964;42.060;24.700;2023-07-16T08:28:04;97811.41;;;32.11;52.24
6094;BME280;19964;42.060;24.700;2023-07-16T08:30:32;97798.72;;;32.79;52.47
6094;BME280;19964;42.060;24.700;2023-07-16T08:32:59;97798.91;;;32.18;53.02
6094;BME280;19964;42.060;24.700;2023-07-16T08:35:26;97777.84;;;31.98;52.27
6094;BME280;19964;42.060;24.700;2023-07-16T08:37:53;97800.56;;;32.49;52.99
6094;BME280;19964;42.060;24.700;2023-07-16T08:40:21;97797.31;;;33.45;51.48
6094;BME280;19964;42.060;24.700;2023-07-16T08:42:49;97804.06;;;33.65;48.93
6094;BME280;19964;42.060;24.700;2023-07-16T08:45:16;97798.31;;;33.33;50.03
6094;BME280;19964;42.060;24.700;2023-07-16T08:47:44;97799.28;;;33.84;50.02
6094;BME280;19964;42.060;24.700;2023-07-16T08:50:11;97787.59;;;34.47;48.15
6094;BME280;19964;42.060;24.700;2023-07-16T08:52:39;97787.88;;;34.92;47.31
6094;BME280;19964;42.060;24.700;2023-07-16T08:55:07;97787.41;;;33.85;47.98
6094;BME280;19964;42.060;24.700;2023-07-16T08:57:36;97795.03;;;33.47;50.75
6094;BME280;19964;42.060;24.700;2023-07-16T09:00:04;97793.91;;;33.48;48.58
6094;BME280;19964;42.060;24.700;2023-07-16T09:02:32;97797.88;;;32.75;49.65
6094;BME280;19964;42.060;24.700;2023-07-16T09:04:59;97804.41;;;32.74;49.50
6094;BME280;19964;42.060;24.700;2023-07-16T09:07:26;97791.94;;;33.45;49.51
6094;BME280;19964;42.060;24.700;2023-07-16T09:09:56;97797.31;;;33.45;51.04
6094;BME280;19964;42.060;24.700;2023-07-16T09:12:27;97794.88;;;33.36;49.36
6094;BME280;19964;42.060;24.700;2023-07-16T09:14:56;97808.25;;;32.99;49.59
6094;BME280;19964;42.060;24.700;2023-07-16T09:17:26;97796.28;;;33.89;48.82
6094;BME280;19964;42.060;24.700;2023-07-16T09:19:53;97794.22;;;33.43;47.95
6094;BME280;19964;42.060;24.700;2023-07-16T09:22:20;97795.41;;;34.15;47.45
6094;BME280;19964;42.060;24.700;2023-07-16T09:24:47;97797.56;;;34.46;48.08
6094;BME280;19964;42.060;24.700;2023-07-16T09:27:14;97793.94;;;34.25;46.25
6094;BME280;19964;42.060;24.700;2023-07-16T09:29:41;97799.75;;;33.90;46.85
6094;BME280;19964;42.060;24.700;2023-07-16T09:32:10;97792.94;;;33.99;47.71
6094;BME280;19964;42.060;24.700;2023-07-16T09:34:37;97794.06;;;33.62;48.51
6094;BME280;19964;42.060;24.700;2023-07-16T09:37:04;97788.66;;;33.28;48.15
6094;BME280;19964;42.060;24.700;2023-07-16T09:39:32;97778.59;;;33.52;49.25
6094;BME280;19964;42.060;24.700;2023-07-16T09:41:59;97772.19;;;33.63;47.12
6094;BME280;19964;42.060;24.700;2023-07-16T09:44:26;97776.94;;;33.44;48.41
6094;BME280;19964;42.060;24.700;2023-07-16T09:46:53;97776.78;;;33.30;48.00
6094;BME280;19964;42.060;24.700;2023-07-16T09:49:22;97769.22;;;33.72;48.29
6094;BME280;19964;42.060;24.700;2023-07-16T09:51:51;97769.19;;;34.08;47.10
6094;BME280;19964;42.060;24.700;2023-07-16T09:54:19;97756.22;;;34.72;47.90
6094;BME280;19964;42.060;24.700;2023-07-16T09:56:50;97768.50;;;34.19;48.34
6094;BME280;19964;42.060;24.700;2023-07-16T09:59:20;97756.13;;;34.07;46.78
6094;BME280;19964;42.060;24.700;2023-07-16T10:01:48;97764.63;;;34.13;47.82
6094;BME280;19964;42.060;24.700;2023-07-16T10:04:17;97757.13;;;33.92;47.65
6094;BME280;19964;42.060;24.700;2023-07-16T10:06:50;97711.88;;;33.61;47.32
6094;BME280;19964;42.060;24.700;2023-07-16T10:09:36;97745.84;;;33.79;48.99
6094;BME280;19964;42.060;24.700;2023-07-16T10:12:14;97750.34;;;34.05;47.53
6094;BME280;19964;42.060;24.700;2023-07-16T10:14:42;97698.75;;;33.56;46.99
6094;BME280;19964;42.060;24.700;2023-07-16T10:17:14;97734.00;;;34.31;47.25
6094;BME280;19964;42.060;24.700;2023-07-16T10:19:49;97727.63;;;34.53;45.97
6094;BME280;19964;42.060;24.700;2023-07-16T10:22:19;97741.72;;;34.33;46.42
6094;BME280;19964;42.060;24.700;2023-07-16T10:24:52;97736.63;;;34.78;46.13
6094;BME280;19964;42.060;24.700;2023-07-16T10:27:30;97732.13;;;33.91;47.81
6094;BME280;19964;42.060;24.700;2023-07-16T10:29:58;97735.13;;;34.84;46.16
6094;BME280;19964;42.060;24.700;2023-07-16T10:32:27;97727.84;;;34.27;46.11
6094;BME280;19964;42.060;24.700;2023-07-16T10:34:55;97726.13;;;34.59;47.70
6094;BME280;19964;42.060;24.700;2023-07-16T10:37:24;97681.03;;;34.46;47.42
6094;BME280;19964;42.060;24.700;2023-07-16T10:39:52;97713.88;;;34.65;46.13
6094;BME280;19964;42.060;24.700;2023-07-16T10:42:22;97710.78;;;34.67;47.30
6094;BME280;19964;42.060;24.700;2023-07-16T10:44:49;97714.69;;;34.76;46.73
6094;BME280;19964;42.060;24.700;2023-07-16T10:47:23;97712.38;;;34.75;47.25
6094;BME280;19964;42.060;24.700;2023-07-16T10:49:51;97713.03;;;34.54;49.21
6094;BME280;19964;42.060;24.700;2023-07-16T10:52:20;97710.09;;;33.79;47.49
6094;BME280;19964;42.060;24.700;2023-07-16T10:54:48;97674.72;;;34.17;47.49
6094;BME280;19964;42.060;24.700;2023-07-16T10:57:17;97696.28;;;34.89;47.16
6094;BME280;19964;42.060;24.700;2023-07-16T10:59:45;97696.19;;;34.71;46.89
6094;BME280;19964;42.060;24.700;2023-07-16T11:02:15;97668.34;;;34.43;48.51
6094;BME280;19964;42.060;24.700;2023-07-16T11:04:43;97689.63;;;34.65;47.04
6094;BME280;19964;42.060;24.700;2023-07-16T11:07:12;97692.81;;;34.24;48.09
6094;BME280;19964;42.060;24.700;2023-07-16T11:09:42;97676.59;;;34.09;49.10
6094;BME280;19964;42.060;24.700;2023-07-16T11:12:12;97674.06;;;33.87;47.95
6094;BME280;19964;42.060;24.700;2023-07-16T11:14:42;97693.91;;;34.16;49.25
6094;BME280;19964;42.060;24.700;2023-07-16T11:17:09;97671.75;;;33.45;49.52
6094;BME280;19964;42.060;24.700;2023-07-16T11:19:37;97687.59;;;33.94;48.11
6094;BME280;19964;42.060;24.700;2023-07-16T11:22:06;97682.75;;;33.70;48.02
6094;BME280;19964;42.060;24.700;2023-07-16T11:24:39;97672.47;;;34.33;47.04
6094;BME280;19964;42.060;24.700;2023-07-16T11:27:14;97675.47;;;34.79;48.52
6094;BME280;19964;42.060;24.700;2023-07-16T11:29:45;97668.00;;;34.51;46.50
6094;BME280;19964;42.060;24.700;2023-07-16T11:32:25;97688.06;;;34.03;47.86
6094;BME280;19964;42.060;24.700;2023-07-16T11:34:52;97681.44;;;33.97;49.65
6094;BME280;19964;42.060;24.700;2023-07-16T11:37:20;97675.94;;;34.30;47.65
6094;BME280;19964;42.060;24.700;2023-07-16T11:39:48;97671.31;;;33.80;49.67
6094;BME280;19964;42.060;24.700;2023-07-16T11:42:23;97668.28;;;34.36;49.02
6094;BME280;19964;42.060;24.700;2023-07-16T11:44:50;97668.44;;;34.02;48.08
6094;BME280;19964;42.060;24.700;2023-07-16T11:47:17;97655.09;;;33.69;48.44
6094;BME280;19964;42.060;24.700;2023-07-16T11:49:44;97610.00;;;33.49;48.50
6094;BME280;19964;42.060;24.700;2023-07-16T11:52:11;97641.22;;;34.11;47.46
6094;BME280;19964;42.060;24.700;2023-07-16T11:54:38;97655.97;;;34.35;46.97
6094;BME280;19964;42.060;24.700;2023-07-16T11:57:05;97649.84;;;34.45;47.26
6094;BME280;19964;42.060;24.700;2023-07-16T11:59:34;97656.78;;;34.39;46.88
6094;BME280;19964;42.060;24.700;2023-07-16T12:02:01;97646.38;;;34.37;47.34
6094;BME280;19964;42.060;24.700;2023-07-16T12:04:29;97634.69;;;34.16;48.24
6094;BME280;19964;42.060;24.700;2023-07-16T12:06:56;97649.31;;;34.15;48.55
6094;BME280;19964;42.060;24.700;2023-07-16T12:09:23;97628.34;;;33.90;48.05
6094;BME280;19964;42.060;24.700;2023-07-16T12:11:50;97657.88;;;34.31;48.80
6094;BME280;19964;42.060;24.700;2023-07-16T12:14:17;97644.59;;;34.62;47.58
6094;BME280;19964;42.060;24.700;2023-07-16T12:16:45;97654.94;;;34.50;50.49
6094;BME280;19964;42.060;24.700;2023-07-16T12:19:12;97656.69;;;34.28;46.80
6094;BME280;19964;42.060;24.700;2023-07-16T12:21:39;97641.63;;;34.13;48.14
6094;BME280;19964;42.060;24.700;2023-07-16T12:24:05;97662.00;;;34.14;47.18
6094;BME280;19964;42.060;24.700;2023-07-16T12:26:32;97650.13;;;33.75;47.57
6094;BME280;19964;42.060;24.700;2023-07-16T12:29:00;97648.84;;;34.02;48.00
6094;BME280;19964;42.060;24.700;2023-07-16T12:31:28;97651.28;;;34.21;47.08
6094;BME280;19964;42.060;24.700;2023-07-16T12:33:56;97644.34;;;34.20;46.42
6094;BME280;19964;42.060;24.700;2023-07-16T12:36:23;97651.41;;;34.39;44.60
6094;BME280;19964;42.060;24.700;2023-07-16T12:38:50;97644.91;;;34.47;46.07
6094;BME280;19964;42.060;24.700;2023-07-16T12:41:17;97636.66;;;34.19;46.35
6094;BME280;19964;42.060;24.700;2023-07-16T12:43:46;97649.31;;;34.15;47.07
6094;BME280;19964;42.060;24.700;2023-07-16T12:46:13;97653.50;;;34.08;45.99
6094;BME280;19964;42.060;24.700;2023-07-16T12:48:40;97647.94;;;33.87;45.63
6094;BME280;19964;42.060;24.700;2023-07-16T12:51:08;97626.75;;;33.79;45.53
6094;BME280;19964;42.060;24.700;2023-07-16T12:53:35;97638.66;;;34.36;46.37
6094;BME280;19964;42.060;24.700;2023-07-16T12:56:02;97566.72;;;34.22;46.41
6094;BME280;19964;42.060;24.700;2023-07-16T12:58:29;97627.63;;;34.48;44.48
6094;BME280;19964;42.060;24.700;2023-07-16T13:00:56;97640.81;;;34.77;46.53
6094;BME280;19964;42.060;24.700;2023-07-16T13:03:22;97626.53;;;34.63;45.14